Time;durP1;ratioP1;P1;durP2;ratioP2;P2;SDS_P1;SDS_P2;PMS_P1;PMS_P2;Temp;Humidity;BMP_temperature;BMP_pressure;BME280_temperature;BME280_humidity;BME280_pressure;Samples;Min_cycle;Max_cycle;Signal;HPM_P1;HPM_P2
2022/05/24 00:00:53;;;;;;;0.22;0.22;;;11.20;99.90;;;;;;5032940;28;20074;-55
2022/05/24 00:03:20;;;;;;;0.73;0.45;;;11.10;99.90;;;;;;5045410;28;20099;-54
2022/05/24 00:05:48;;;;;;;0.30;0.30;;;11.20;99.90;;;;;;5043763;28;20048;-53
2022/05/24 00:08:15;;;;;;;0.75;0.40;;;11.10;99.90;;;;;;5044277;28;20045;-54
2022/05/24 00:10:42;;;;;;;0.20;0.20;;;11.10;99.90;;;;;;5037457;28;20129;-56
2022/05/24 00:13:10;;;;;;;0.10;0.10;;;11.00;99.90;;;;;;5048174;28;20152;-54
2022/05/24 00:15:36;;;;;;;0.43;0.20;;;11.00;99.90;;;;;;5048123;28;20068;-54
2022/05/24 00:18:07;;;;;;;0.32;0.30;;;11.00;99.90;;;;;;5039244;28;20041;-54
2022/05/24 00:20:38;;;;;;;0.30;0.30;;;11.00;99.90;;;;;;5031862;28;20552;-55
2022/05/24 00:23:05;;;;;;;0.35;0.32;;;11.00;99.90;;;;;;5045112;28;20212;-59
2022/05/24 00:25:33;;;;;;;0.30;0.30;;;11.00;99.90;;;;;;5037617;28;20171;-56
2022/05/24 00:28:00;;;;;;;0.73;0.32;;;11.00;99.90;;;;;;5025573;28;20053;-53
2022/05/24 00:30:27;;;;;;;0.30;0.30;;;11.00;99.90;;;;;;5011966;28;20560;-57
2022/05/24 00:32:54;;;;;;;0.30;0.30;;;11.00;99.90;;;;;;5030767;28;20077;-55
2022/05/24 00:35:20;;;;;;;0.40;0.40;;;11.00;99.90;;;;;;5046705;28;20071;-55
2022/05/24 00:37:47;;;;;;;0.32;0.32;;;11.00;99.90;;;;;;5030462;28;20075;-53
2022/05/24 00:41:05;;;;;;;0.40;0.40;;;10.90;99.90;;;;;;5020061;28;20091;-55
2022/05/24 00:43:39;;;;;;;0.40;0.40;;;10.90;99.90;;;;;;4973507;28;20543;-54
2022/05/24 00:46:22;;;;;;;1.05;0.50;;;10.90;99.90;;;;;;5047580;28;20303;-52
2022/05/24 00:48:58;;;;;;;0.50;0.43;;;10.90;99.90;;;;;;5023235;28;20152;-54
2022/05/24 00:51:30;;;;;;;0.30;0.30;;;10.90;99.90;;;;;;5023719;28;20155;-53
2022/05/24 00:53:57;;;;;;;0.60;0.57;;;11.00;99.90;;;;;;5029710;28;20048;-55
2022/05/24 00:56:45;;;;;;;0.30;0.30;;;11.00;99.90;;;;;;5047104;28;20136;-55
2022/05/24 00:59:23;;;;;;;0.35;0.35;;;11.00;99.90;;;;;;5030497;28;20080;-53
2022/05/24 01:01:50;;;;;;;0.57;0.45;;;11.00;99.90;;;;;;5020813;28;20429;-53
2022/05/24 01:04:19;;;;;;;0.65;0.50;;;11.00;99.90;;;;;;5042285;28;20400;-54
2022/05/24 01:06:49;;;;;;;0.28;0.20;;;10.90;99.90;;;;;;5043046;28;20111;-55
2022/05/24 01:09:30;;;;;;;1.05;0.28;;;10.90;99.90;;;;;;5042723;28;20432;-55
2022/05/24 01:12:01;;;;;;;0.47;0.28;;;10.90;99.90;;;;;;5016105;28;20053;-53
2022/05/24 01:14:28;;;;;;;0.40;0.30;;;10.90;99.90;;;;;;5024968;28;20052;-55
2022/05/24 01:16:55;;;;;;;0.95;0.30;;;10.90;99.90;;;;;;5006082;28;20110;-55
2022/05/24 01:19:46;;;;;;;0.45;0.40;;;10.90;99.90;;;;;;5019025;28;20132;-54
2022/05/24 01:22:44;;;;;;;0.40;0.40;;;10.90;99.90;;;;;;5025246;28;20069;-54
2022/05/24 01:25:24;;;;;;;1.02;0.40;;;10.90;99.90;;;;;;5042559;28;20164;-54
2022/05/24 01:27:50;;;;;;;0.20;0.20;;;10.90;99.90;;;;;;5031067;28;20639;-55
2022/05/24 01:30:17;;;;;;;0.60;0.30;;;10.90;99.90;;;;;;5039752;28;20128;-54
2022/05/24 01:38:18;;;;;;;0.20;0.20;;;10.80;99.90;;;;;;5030008;28;20068;-55
2022/05/24 01:40:46;;;;;;;0.20;0.20;;;10.80;99.90;;;;;;5025265;28;20106;-55
2022/05/24 01:43:13;;;;;;;0.20;0.20;;;10.80;99.90;;;;;;5030416;28;20072;-51
2022/05/24 01:45:46;;;;;;;0.70;0.30;;;10.80;99.90;;;;;;5029227;28;20444;-52
2022/05/24 01:48:14;;;;;;;0.43;0.20;;;10.70;99.90;;;;;;5016185;28;20045;-52
2022/05/24 01:50:41;;;;;;;0.28;0.28;;;10.70;99.90;;;;;;5007965;28;20572;-55
2022/05/24 01:53:17;;;;;;;0.50;0.30;;;10.70;99.90;;;;;;5022831;28;20219;-55
2022/05/24 01:55:47;;;;;;;0.30;0.20;;;10.80;99.90;;;;;;5046006;28;20084;-55
2022/05/24 01:58:15;;;;;;;0.20;0.20;;;10.70;99.90;;;;;;5017249;28;20049;-52
2022/05/24 02:00:45;;;;;;;0.22;0.13;;;10.70;99.90;;;;;;5009174;28;20430;-53
2022/05/24 02:03:12;;;;;;;0.30;0.30;;;10.70;99.90;;;;;;5021417;28;20159;-55
2022/05/24 02:05:40;;;;;;;0.20;0.20;;;10.70;99.90;;;;;;5044924;28;20284;-54
2022/05/24 02:08:08;;;;;;;0.43;0.30;;;10.60;99.90;;;;;;5042312;28;20085;-54
2022/05/24 02:10:51;;;;;;;0.30;0.20;;;10.60;99.90;;;;;;5026498;28;20433;-54
2022/05/24 02:13:39;;;;;;;0.28;0.28;;;10.60;99.90;;;;;;5037471;28;20140;-55
2022/05/24 02:16:13;;;;;;;0.25;0.25;;;10.60;99.90;;;;;;5028355;28;20060;-55
2022/05/24 02:18:41;;;;;;;0.80;0.47;;;10.50;99.90;;;;;;5010744;28;20492;-55
2022/05/24 02:21:08;;;;;;;0.52;0.35;;;10.50;99.90;;;;;;5015643;28;20081;-55
2022/05/24 02:23:42;;;;;;;0.43;0.30;;;10.50;99.90;;;;;;5040337;28;20227;-53
2022/05/24 02:26:10;;;;;;;0.85;0.30;;;10.50;99.90;;;;;;5045907;28;20186;-53
2022/05/24 02:28:37;;;;;;;0.15;0.15;;;10.40;99.90;;;;;;5043365;28;20424;-54
2022/05/24 02:31:06;;;;;;;0.43;0.30;;;10.40;99.90;;;;;;5028637;28;20124;-54
2022/05/24 02:33:33;;;;;;;0.22;0.20;;;10.40;99.90;;;;;;5044697;28;20053;-54
2022/05/24 02:36:00;;;;;;;0.40;0.20;;;10.30;99.90;;;;;;5044601;28;20048;-50
2022/05/24 02:38:27;;;;;;;0.30;0.30;;;10.30;99.90;;;;;;5047062;28;20709;-54
2022/05/24 02:43:39;;;;;;;0.30;0.30;;;10.20;99.90;;;;;;5040053;28;20076;-55
2022/05/24 02:46:06;;;;;;;0.13;0.13;;;10.20;99.90;;;;;;5027067;28;20120;-53
2022/05/24 02:48:34;;;;;;;0.55;0.38;;;10.20;99.90;;;;;;5030805;28;20064;-54
2022/05/24 02:51:00;;;;;;;0.20;0.20;;;10.20;99.90;;;;;;5016303;28;20099;-55
2022/05/24 02:53:27;;;;;;;0.25;0.25;;;10.20;99.90;;;;;;5040601;28;20989;-55
2022/05/24 02:55:54;;;;;;;0.20;0.20;;;10.20;99.90;;;;;;5045672;28;20503;-53
2022/05/24 02:58:20;;;;;;;0.20;0.20;;;10.20;99.90;;;;;;5045201;28;20132;-52
2022/05/24 03:00:47;;;;;;;0.20;0.20;;;10.30;99.90;;;;;;5029942;28;20077;-54
2022/05/24 03:03:14;;;;;;;0.20;0.20;;;10.30;99.90;;;;;;5027081;28;20133;-54
2022/05/24 03:05:41;;;;;;;0.30;0.20;;;10.30;99.90;;;;;;5029163;28;20041;-55
2022/05/24 03:10:53;;;;;;;0.52;0.30;;;10.30;99.90;;;;;;5046042;28;20386;-56
2022/05/24 03:16:12;;;;;;;0.50;0.40;;;10.40;99.90;;;;;;5037901;28;20080;-55
2022/05/24 03:18:40;;;;;;;0.20;0.20;;;10.40;99.90;;;;;;5025668;28;20050;-55
2022/05/24 03:21:06;;;;;;;0.22;0.20;;;10.40;99.90;;;;;;5044630;28;20149;-53
2022/05/24 03:23:33;;;;;;;0.15;0.15;;;10.50;99.90;;;;;;5041734;28;20156;-55
2022/05/24 03:26:00;;;;;;;0.10;0.10;;;10.50;99.90;;;;;;5044412;28;20216;-50
2022/05/24 03:28:28;;;;;;;0.20;0.20;;;10.50;99.90;;;;;;5033793;28;20540;-51
2022/05/24 03:30:55;;;;;;;0.10;0.10;;;10.50;99.90;;;;;;5025757;28;20045;-54
2022/05/24 03:33:22;;;;;;;0.25;0.25;;;10.50;99.90;;;;;;5036984;28;20049;-53
2022/05/24 03:35:48;;;;;;;0.30;0.30;;;10.50;99.90;;;;;;5031559;28;20125;-55
2022/05/24 03:38:15;;;;;;;0.25;0.22;;;10.50;99.90;;;;;;5050046;28;20128;-55
2022/05/24 03:40:42;;;;;;;0.35;0.20;;;10.60;99.90;;;;;;5039453;28;20156;-53
2022/05/24 03:43:13;;;;;;;0.20;0.20;;;10.60;99.90;;;;;;5037088;28;20118;-54
2022/05/24 03:45:40;;;;;;;0.20;0.20;;;10.60;99.90;;;;;;5019454;28;20061;-55
2022/05/24 03:48:13;;;;;;;0.20;0.20;;;10.60;99.90;;;;;;5030819;28;20045;-55
2022/05/24 03:50:39;;;;;;;0.20;0.20;;;10.60;99.90;;;;;;5028180;28;20224;-53
2022/05/24 03:53:06;;;;;;;0.20;0.20;;;10.60;99.90;;;;;;5036316;28;20049;-52
2022/05/24 03:55:33;;;;;;;0.20;0.20;;;10.60;99.90;;;;;;5046469;28;20136;-55
2022/05/24 03:58:00;;;;;;;0.20;0.20;;;10.70;99.90;;;;;;5029961;28;20520;-55
2022/05/24 04:00:33;;;;;;;0.10;0.10;;;10.70;99.90;;;;;;5037162;28;20442;-53
2022/05/24 04:03:00;;;;;;;0.10;0.10;;;10.70;99.90;;;;;;5048616;28;20183;-54
2022/05/24 04:05:27;;;;;;;0.20;0.20;;;10.80;99.90;;;;;;5029591;28;20081;-55
2022/05/24 04:07:54;;;;;;;0.30;0.20;;;10.80;99.90;;;;;;5044889;28;20080;-55
2022/05/24 04:10:21;;;;;;;0.20;0.20;;;10.70;99.90;;;;;;5036285;28;20340;-58
2022/05/24 04:12:48;;;;;;;0.20;0.20;;;10.60;99.90;;;;;;5032982;28;20144;-58
2022/05/24 04:15:14;;;;;;;0.38;0.30;;;10.50;99.90;;;;;;5042379;28;20277;-58
2022/05/24 04:17:41;;;;;;;0.68;0.40;;;10.30;99.90;;;;;;5041467;28;20136;-57
2022/05/24 04:20:09;;;;;;;0.45;0.45;;;10.10;99.90;;;;;;5047269;28;20096;-57
2022/05/24 04:22:36;;;;;;;0.57;0.30;;;10.00;99.90;;;;;;5040517;28;20042;-59
2022/05/24 04:25:03;;;;;;;0.65;0.50;;;9.90;99.90;;;;;;5030520;28;20537;-59
2022/05/24 04:27:29;;;;;;;0.30;0.30;;;9.90;99.90;;;;;;5047110;28;20152;-58
2022/05/24 04:29:56;;;;;;;0.32;0.30;;;9.90;99.90;;;;;;5048347;28;20089;-57
2022/05/24 04:32:23;;;;;;;0.77;0.50;;;9.90;99.90;;;;;;5030086;28;20156;-59
2022/05/24 04:34:50;;;;;;;1.30;0.52;;;9.80;99.90;;;;;;5035856;28;20136;-59
2022/05/24 04:37:17;;;;;;;0.63;0.50;;;9.80;99.90;;;;;;5031950;28;20126;-59
2022/05/24 04:39:44;;;;;;;0.73;0.60;;;9.90;99.90;;;;;;5031441;28;20658;-64
2022/05/24 04:42:19;;;;;;;0.50;0.40;;;9.90;99.90;;;;;;5038355;28;20128;-58
2022/05/24 04:44:47;;;;;;;0.28;0.28;;;9.90;99.90;;;;;;5038749;28;20075;-58
2022/05/24 04:47:15;;;;;;;0.70;0.50;;;9.90;99.90;;;;;;5031071;28;20046;-58
2022/05/24 04:49:44;;;;;;;0.70;0.55;;;9.90;99.90;;;;;;5031362;28;20045;-57
2022/05/24 04:52:11;;;;;;;0.25;0.25;;;9.90;99.90;;;;;;5034344;28;20133;-59
2022/05/24 04:54:38;;;;;;;0.30;0.30;;;10.00;99.90;;;;;;5034205;28;20582;-58
2022/05/24 04:57:05;;;;;;;0.30;0.30;;;10.00;99.90;;;;;;5016841;28;20467;-56
2022/05/24 04:59:32;;;;;;;0.43;0.40;;;10.00;99.90;;;;;;5015722;28;20126;-58
2022/05/24 05:01:59;;;;;;;0.75;0.73;;;10.10;99.90;;;;;;5035697;28;20093;-57
2022/05/24 05:04:26;;;;;;;0.30;0.30;;;10.10;99.90;;;;;;5018232;28;20434;-56
2022/05/24 05:06:53;;;;;;;0.52;0.40;;;10.20;99.90;;;;;;5039209;28;20060;-57
2022/05/24 05:09:20;;;;;;;0.30;0.30;;;10.20;99.90;;;;;;5040755;28;20464;-57
2022/05/24 05:11:47;;;;;;;0.30;0.30;;;10.20;99.90;;;;;;5034448;28;20137;-58
2022/05/24 05:14:19;;;;;;;0.68;0.50;;;10.30;99.90;;;;;;5010252;28;21226;-56
2022/05/24 05:16:46;;;;;;;0.90;0.40;;;10.30;99.90;;;;;;5030188;28;20134;-57
2022/05/24 05:19:13;;;;;;;0.52;0.32;;;10.30;99.90;;;;;;5032847;28;20060;-56
2022/05/24 05:21:40;;;;;;;0.40;0.40;;;10.40;99.90;;;;;;5029748;28;20599;-56
2022/05/24 05:24:07;;;;;;;0.55;0.50;;;10.40;99.90;;;;;;5030521;28;20087;-54
2022/05/24 05:26:34;;;;;;;0.40;0.40;;;10.40;99.90;;;;;;5028001;28;20415;-54
2022/05/24 05:29:00;;;;;;;0.40;0.40;;;10.40;99.90;;;;;;5036267;28;20138;-55
2022/05/24 05:31:27;;;;;;;0.80;0.45;;;10.30;99.90;;;;;;5029057;28;20052;-57
2022/05/24 05:33:58;;;;;;;0.40;0.40;;;10.30;99.90;;;;;;5029708;28;20064;-57
2022/05/24 05:36:27;;;;;;;1.40;0.57;;;10.40;99.90;;;;;;5024046;28;20120;-56
2022/05/24 05:38:54;;;;;;;0.35;0.28;;;10.50;99.90;;;;;;5025462;28;20250;-54
2022/05/24 05:41:23;;;;;;;0.30;0.30;;;10.50;99.90;;;;;;5010218;28;20674;-57
2022/05/24 05:43:50;;;;;;;0.63;0.60;;;10.60;99.90;;;;;;5032809;28;20115;-56
2022/05/24 05:46:17;;;;;;;0.30;0.30;;;10.60;99.90;;;;;;5027915;28;20041;-56
2022/05/24 05:48:44;;;;;;;0.35;0.35;;;10.60;99.90;;;;;;5032481;28;20048;-56
2022/05/24 05:51:12;;;;;;;0.47;0.47;;;10.60;99.90;;;;;;5029029;28;20055;-55
2022/05/24 05:53:39;;;;;;;0.60;0.47;;;10.70;99.90;;;;;;5029146;28;20633;-56
2022/05/24 05:56:08;;;;;;;1.42;0.85;;;10.80;99.90;;;;;;5021284;28;20364;-55
2022/05/24 05:58:35;;;;;;;1.10;0.60;;;10.80;99.90;;;;;;5018393;28;20092;-56
2022/05/24 06:01:02;;;;;;;0.60;0.60;;;10.80;99.90;;;;;;5028451;28;20558;-56
2022/05/24 06:03:30;;;;;;;1.08;0.98;;;10.80;99.90;;;;;;5031249;28;20060;-56
2022/05/24 06:05:58;;;;;;;1.20;0.70;;;10.80;99.90;;;;;;5037321;28;20037;-58
2022/05/24 06:08:24;;;;;;;0.80;0.80;;;10.90;99.90;;;;;;5027833;28;20154;-52
2022/05/24 06:10:51;;;;;;;0.73;0.73;;;11.00;99.90;;;;;;5032974;28;20055;-56
2022/05/24 06:13:18;;;;;;;0.70;0.70;;;11.00;99.90;;;;;;5039213;28;20053;-56
2022/05/24 06:15:47;;;;;;;0.80;0.80;;;11.10;99.90;;;;;;5033402;28;20049;-56
2022/05/24 06:18:13;;;;;;;0.50;0.50;;;11.20;99.90;;;;;;5008011;28;20141;-56
2022/05/24 06:20:40;;;;;;;0.57;0.57;;;11.10;99.90;;;;;;5035260;28;20164;-56
2022/05/24 06:23:07;;;;;;;0.60;0.60;;;11.20;99.90;;;;;;5028120;28;20074;-56
2022/05/24 06:25:34;;;;;;;1.50;0.90;;;11.20;99.90;;;;;;5018635;28;20049;-56
2022/05/24 06:28:01;;;;;;;1.77;1.33;;;11.10;99.90;;;;;;5018836;28;20052;-56
2022/05/24 06:30:32;;;;;;;1.15;1.05;;;11.00;99.90;;;;;;5034312;28;20056;-55
2022/05/24 06:32:58;;;;;;;1.73;0.98;;;10.90;99.90;;;;;;5039494;28;20135;-57
2022/05/24 06:35:25;;;;;;;1.00;0.90;;;10.90;99.90;;;;;;5037559;28;20095;-57
2022/05/24 06:37:53;;;;;;;1.00;0.80;;;11.00;99.90;;;;;;5038987;28;20067;-56
2022/05/24 06:40:20;;;;;;;1.50;1.10;;;11.10;99.90;;;;;;5038864;28;20128;-55
2022/05/24 06:42:47;;;;;;;0.80;0.75;;;11.20;99.90;;;;;;5038783;28;20053;-55
2022/05/24 06:45:14;;;;;;;1.25;0.82;;;11.20;99.90;;;;;;5038168;28;20280;-55
2022/05/24 06:47:41;;;;;;;0.93;0.70;;;11.40;99.90;;;;;;5038954;28;20064;-55
2022/05/24 06:50:08;;;;;;;0.80;0.77;;;11.50;99.90;;;;;;5019292;28;20053;-56
2022/05/24 06:52:36;;;;;;;1.02;0.90;;;11.70;99.90;;;;;;5038520;28;20076;-53
2022/05/24 06:55:04;;;;;;;1.27;0.80;;;11.70;99.90;;;;;;5020530;28;20049;-53
2022/05/24 06:57:31;;;;;;;1.10;0.70;;;11.70;99.90;;;;;;5038872;28;20131;-55
2022/05/24 07:02:43;;;;;;;0.77;0.70;;;11.70;99.90;;;;;;5038401;28;20380;-56
2022/05/24 07:05:14;;;;;;;0.82;0.80;;;11.60;99.90;;;;;;5037356;28;20090;-57
2022/05/24 07:07:41;;;;;;;0.50;0.50;;;11.50;99.90;;;;;;5037862;28;20639;-58
2022/05/24 07:10:09;;;;;;;0.60;0.60;;;11.40;99.90;;;;;;5038157;28;20453;-58
2022/05/24 07:12:36;;;;;;;0.60;0.60;;;11.40;99.90;;;;;;5028458;28;20480;-58
2022/05/24 07:15:03;;;;;;;0.65;0.60;;;11.30;99.90;;;;;;5035601;28;20124;-59
2022/05/24 07:17:30;;;;;;;0.70;0.50;;;11.30;99.90;;;;;;5027405;28;20148;-58
2022/05/24 07:19:56;;;;;;;0.57;0.57;;;11.30;99.90;;;;;;5033431;28;20176;-56
2022/05/24 07:22:23;;;;;;;0.70;0.70;;;11.20;99.90;;;;;;5037092;28;20053;-58
2022/05/24 07:24:50;;;;;;;0.60;0.60;;;11.20;99.90;;;;;;5033449;28;20180;-58
2022/05/24 07:27:21;;;;;;;0.73;0.70;;;11.20;99.90;;;;;;5029936;28;20057;-58
2022/05/24 07:29:48;;;;;;;0.70;0.60;;;11.30;99.90;;;;;;5038085;28;20223;-58
2022/05/24 07:32:15;;;;;;;1.02;0.60;;;11.30;99.90;;;;;;5026845;28;20064;-58
2022/05/24 07:34:42;;;;;;;0.63;0.63;;;11.40;99.90;;;;;;5035511;28;20128;-57
2022/05/24 07:37:13;;;;;;;0.73;0.73;;;11.50;99.90;;;;;;5038267;28;20522;-57
2022/05/24 07:39:40;;;;;;;0.80;0.65;;;11.60;99.90;;;;;;5036901;28;20063;-58
2022/05/24 07:47:41;;;;;;;0.75;0.75;;;11.50;99.90;;;;;;5038556;28;20136;-57
2022/05/24 07:50:09;;;;;;;1.48;1.08;;;11.40;99.90;;;;;;5036967;28;20049;-57
2022/05/24 07:52:36;;;;;;;1.65;0.88;;;11.50;99.90;;;;;;5038474;28;20072;-58
2022/05/24 07:55:03;;;;;;;1.27;0.80;;;11.60;99.90;;;;;;5038495;28;20177;-56
2022/05/24 07:57:30;;;;;;;1.13;0.93;;;11.70;99.90;;;;;;5038841;28;20072;-58
2022/05/24 08:00:03;;;;;;;1.00;0.90;;;11.90;99.90;;;;;;5004586;28;20071;-58
2022/05/24 08:02:30;;;;;;;0.70;0.70;;;12.20;99.90;;;;;;5038532;28;20139;-56
2022/05/24 08:04:56;;;;;;;0.70;0.65;;;12.30;99.90;;;;;;5037337;28;20458;-57
2022/05/24 08:07:23;;;;;;;1.75;0.90;;;12.20;99.90;;;;;;5037674;28;20123;-58
2022/05/24 08:09:50;;;;;;;1.92;0.93;;;12.10;99.90;;;;;;5038285;28;20075;-58
2022/05/24 08:12:17;;;;;;;1.25;0.80;;;11.80;99.90;;;;;;5037623;28;20920;-59
2022/05/24 08:14:43;;;;;;;1.00;0.90;;;11.70;99.90;;;;;;5037564;28;20077;-58
2022/05/24 08:17:11;;;;;;;0.60;0.60;;;11.60;99.90;;;;;;5038712;28;20575;-58
2022/05/24 08:19:38;;;;;;;1.55;0.93;;;11.50;99.90;;;;;;5041212;28;20049;-58
2022/05/24 08:22:05;;;;;;;0.90;0.90;;;11.50;99.90;;;;;;5040943;28;20056;-58
2022/05/24 08:24:32;;;;;;;1.27;0.80;;;11.50;99.90;;;;;;5023577;28;20049;-58
2022/05/24 08:26:59;;;;;;;1.38;1.05;;;11.50;99.90;;;;;;5041704;28;20541;-58
2022/05/24 08:29:26;;;;;;;0.90;0.80;;;11.60;99.90;;;;;;5041066;28;20056;-58
2022/05/24 08:31:53;;;;;;;1.88;0.80;;;11.80;99.90;;;;;;5041440;28;20139;-58
2022/05/24 08:34:20;;;;;;;0.70;0.70;;;12.00;99.90;;;;;;5040313;28;20179;-57
2022/05/24 08:36:47;;;;;;;1.70;0.90;;;12.30;99.90;;;;;;5040876;28;20052;-57
2022/05/24 08:39:13;;;;;;;2.92;1.10;;;12.50;99.90;;;;;;5040973;28;20445;-57
2022/05/24 08:42:05;;;;;;;0.70;0.70;;;12.60;99.90;;;;;;5041590;28;20076;-58
2022/05/24 08:50:17;;;;;;;1.48;0.90;;;12.80;99.90;;;;;;5024506;28;20344;-55
2022/05/24 08:52:53;;;;;;;1.05;0.90;;;13.00;99.90;;;;;;5017515;28;20110;-57
2022/05/24 08:55:20;;;;;;;1.10;0.70;;;13.00;99.90;;;;;;4989552;28;20088;-57
2022/05/24 08:57:57;;;;;;;0.50;0.50;;;13.10;99.90;;;;;;5038860;28;20064;-58
2022/05/24 09:00:37;;;;;;;0.70;0.57;;;13.20;99.90;;;;;;5026869;28;20049;-57
2022/05/24 09:03:05;;;;;;;0.90;0.90;;;13.40;99.90;;;;;;5014249;28;20055;-55
2022/05/24 09:05:46;;;;;;;0.80;0.70;;;13.40;99.90;;;;;;5021627;28;20080;-55
2022/05/24 09:08:26;;;;;;;0.75;0.60;;;13.50;99.90;;;;;;5040047;28;20568;-55
2022/05/24 09:11:02;;;;;;;0.80;0.50;;;13.60;99.90;;;;;;5021965;28;20068;-56
2022/05/24 09:14:08;;;;;;;0.85;0.70;;;13.70;99.90;;;;;;5040904;28;20076;-55
2022/05/24 09:17:04;;;;;;;0.70;0.50;;;13.70;99.90;;;;;;5043950;28;20135;-55
2022/05/24 09:19:33;;;;;;;0.60;0.60;;;13.90;99.90;;;;;;5043059;28;20060;-55
2022/05/24 09:22:03;;;;;;;0.63;0.52;;;13.90;99.90;;;;;;5027374;28;20131;-54
2022/05/24 09:24:44;;;;;;;0.63;0.45;;;14.10;99.90;;;;;;5038656;28;20081;-56
2022/05/24 09:27:20;;;;;;;0.88;0.70;;;14.30;99.90;;;;;;5039453;28;20075;-54
2022/05/24 09:30:05;;;;;;;0.50;0.50;;;14.20;99.90;;;;;;5009816;28;20507;-54
2022/05/24 09:32:40;;;;;;;0.80;0.40;;;14.20;99.90;;;;;;5029854;28;20076;-55
2022/05/24 09:35:16;;;;;;;0.57;0.30;;;14.30;99.90;;;;;;5043771;28;20139;-55
2022/05/24 09:38:04;;;;;;;1.45;0.70;;;14.40;99.90;;;;;;5040933;28;20049;-54
2022/05/24 09:40:46;;;;;;;0.50;0.50;;;14.40;99.90;;;;;;5040431;28;20132;-56
2022/05/24 09:43:33;;;;;;;1.15;0.50;;;14.40;99.90;;;;;;5033307;28;20174;-56
2022/05/24 09:46:03;;;;;;;0.65;0.30;;;14.30;99.90;;;;;;5046025;28;20428;-54
2022/05/24 09:48:33;;;;;;;0.43;0.40;;;14.20;99.90;;;;;;5025282;28;20081;-54
2022/05/24 09:51:01;;;;;;;0.57;0.32;;;14.20;99.90;;;;;;5036626;28;20465;-55
2022/05/24 09:53:30;;;;;;;1.08;0.50;;;14.30;99.90;;;;;;5042228;28;20135;-55
2022/05/24 09:56:16;;;;;;;0.30;0.30;;;14.40;99.90;;;;;;5039663;28;20044;-55
2022/05/24 09:58:58;;;;;;;0.77;0.50;;;14.60;99.90;;;;;;5008060;28;20045;-54
2022/05/24 10:01:43;;;;;;;0.65;0.40;;;15.00;99.90;;;;;;5036279;28;20046;-54
2022/05/24 10:04:10;;;;;;;0.28;0.28;;;15.10;99.90;;;;;;5023851;28;20483;-55
2022/05/24 10:06:37;;;;;;;0.68;0.40;;;15.00;99.90;;;;;;5044595;28;20120;-55
2022/05/24 10:09:11;;;;;;;0.30;0.30;;;15.00;99.90;;;;;;5022578;28;20436;-56
2022/05/24 10:11:56;;;;;;;0.80;0.40;;;15.20;99.90;;;;;;5020318;28;20167;-54
2022/05/24 10:14:25;;;;;;;0.50;0.43;;;15.40;99.90;;;;;;5018519;28;20077;-54
2022/05/24 10:16:59;;;;;;;0.95;0.40;;;15.60;99.90;;;;;;5035175;28;20084;-55
2022/05/24 10:19:59;;;;;;;0.47;0.38;;;15.70;99.90;;;;;;4990252;28;20120;-55
2022/05/24 10:22:42;;;;;;;1.10;0.40;;;15.60;99.90;;;;;;5016600;28;20053;-54
2022/05/24 10:25:26;;;;;;;0.30;0.30;;;15.70;99.90;;;;;;5021618;28;20139;-53
2022/05/24 10:28:08;;;;;;;1.50;0.40;;;15.80;99.90;;;;;;5024781;28;20135;-53
2022/05/24 10:30:54;;;;;;;0.55;0.30;;;15.70;99.90;;;;;;5041873;28;20479;-53
2022/05/24 10:40:25;;;;;;;0.57;0.40;;;15.70;99.90;;;;;;5030184;28;20087;-55
2022/05/24 10:43:03;;;;;;;0.20;0.20;;;15.60;99.90;;;;;;5003123;28;20164;-54
2022/05/24 10:45:49;;;;;;;0.30;0.30;;;15.90;99.90;;;;;;5044598;28;20136;-56
2022/05/24 10:48:23;;;;;;;0.50;0.30;;;16.30;99.90;;;;;;5028971;28;20140;-55
2022/05/24 10:51:16;;;;;;;;;;;16.50;99.90;;;;;;5025859;28;20045;-54
2022/05/24 10:54:11;;;;;;;0.55;0.35;;;16.60;99.90;;;;;;5041631;28;19960;-55
2022/05/24 10:56:45;;;;;;;0.65;0.40;;;16.60;99.90;;;;;;5026881;28;20523;-55
2022/05/24 10:59:18;;;;;;;0.30;0.30;;;16.60;99.90;;;;;;5027014;28;20401;-54
2022/05/24 11:01:50;;;;;;;0.47;0.35;;;16.80;99.90;;;;;;5026836;28;20485;-55
2022/05/24 11:04:25;;;;;;;0.70;0.47;;;16.80;99.90;;;;;;5019628;28;20049;-53
2022/05/24 11:06:59;;;;;;;3.83;3.40;;;16.90;99.90;;;;;;5020383;28;20076;-53
2022/05/24 11:09:28;;;;;;;4.78;4.38;;;16.90;99.90;;;;;;5015747;28;20216;-55
2022/05/24 11:11:59;;;;;;;3.85;3.45;;;16.90;99.90;;;;;;5035439;28;20065;-55
2022/05/24 11:14:36;;;;;;;2.42;2.05;;;17.00;99.90;;;;;;4997238;28;20144;-55
2022/05/24 11:17:03;;;;;;;1.65;1.52;;;17.20;99.90;;;;;;5018852;28;20140;-55
2022/05/24 11:19:32;;;;;;;1.20;1.10;;;17.40;99.90;;;;;;5028031;28;20083;-53
2022/05/24 11:22:11;;;;;;;1.10;1.00;;;17.50;99.90;;;;;;5019701;28;20194;-56
2022/05/24 11:25:02;;;;;;;1.23;0.80;;;17.40;99.90;;;;;;5038109;28;20143;-55
2022/05/24 11:27:36;;;;;;;1.38;0.60;;;17.20;99.90;;;;;;5019137;28;20077;-53
2022/05/24 11:30:36;;;;;;;0.88;0.60;;;16.80;99.90;;;;;;4994564;28;20140;-55
2022/05/24 11:33:03;;;;;;;0.40;0.40;;;16.20;99.90;;;;;;4978114;28;20053;-54
2022/05/24 11:35:35;;;;;;;0.63;0.40;;;15.50;99.90;;;;;;5037033;28;20156;-59
2022/05/24 11:38:16;;;;;;;0.60;0.43;;;14.20;99.90;;;;;;5018454;28;20069;-59
2022/05/24 11:41:11;;;;;;;0.57;0.30;;;12.70;99.90;;;;;;5021075;28;20452;-60
2022/05/24 11:43:44;;;;;;;0.25;0.22;;;11.80;99.90;;;;;;5030555;28;20064;-58
2022/05/24 11:46:31;;;;;;;1.00;0.20;;;11.50;99.90;;;;;;5017545;28;20273;-58
2022/05/24 11:48:59;;;;;;;0.22;0.20;;;11.30;99.90;;;;;;5001136;28;20049;-58
2022/05/24 11:51:32;;;;;;;0.30;0.25;;;11.20;99.90;;;;;;5032787;28;20152;-58
2022/05/24 11:54:02;;;;;;;0.90;0.20;;;11.20;99.90;;;;;;5029886;28;20579;-57
2022/05/24 11:56:29;;;;;;;0.30;0.30;;;11.30;99.90;;;;;;5038059;28;20057;-57
2022/05/24 11:59:01;;;;;;;0.75;0.75;;;11.40;99.90;;;;;;5035134;28;20169;-55
2022/05/24 12:01:41;;;;;;;0.40;0.40;;;11.30;99.90;;;;;;5034727;28;20049;-56
2022/05/24 12:10:05;;;;;;;0.38;0.38;;;11.50;99.90;;;;;;5029465;28;20493;-56
2022/05/24 12:12:34;;;;;;;0.63;0.60;;;11.50;99.90;;;;;;5042815;28;20053;-55
2022/05/24 12:15:15;;;;;;;0.47;0.47;;;11.50;99.90;;;;;;5022307;28;20089;-56
2022/05/24 12:17:42;;;;;;;0.50;0.40;;;11.60;99.90;;;;;;5037112;28;20081;-57
2022/05/24 12:20:32;;;;;;;0.65;0.60;;;11.70;99.90;;;;;;5032548;28;20231;-55
2022/05/24 12:23:13;;;;;;;0.60;0.60;;;11.90;99.90;;;;;;5024721;28;20136;-56
2022/05/24 12:26:10;;;;;;;0.55;0.50;;;12.20;99.90;;;;;;5022625;28;20049;-56
2022/05/24 12:28:37;;;;;;;0.70;0.70;;;12.80;99.90;;;;;;5033520;28;20164;-56
2022/05/24 12:31:13;;;;;;;0.52;0.45;;;13.60;99.90;;;;;;5037803;28;20500;-56
2022/05/24 12:33:46;;;;;;;0.40;0.40;;;14.00;99.90;;;;;;5039814;28;20080;-54
2022/05/24 12:36:51;;;;;;;0.60;0.40;;;14.20;99.90;;;;;;5039097;28;20402;-56
2022/05/24 12:39:38;;;;;;;0.73;0.60;;;13.90;99.90;;;;;;5022698;28;20049;-55
2022/05/24 12:42:12;;;;;;;0.60;0.60;;;14.50;99.90;;;;;;5042796;28;20089;-56
2022/05/24 12:44:45;;;;;;;0.68;0.50;;;14.80;99.90;;;;;;5024812;28;20050;-55
2022/05/24 12:47:15;;;;;;;0.60;0.60;;;15.00;99.90;;;;;;5026362;28;20665;-56
2022/05/24 12:49:48;;;;;;;0.50;0.47;;;15.20;99.90;;;;;;5024022;28;20130;-56
2022/05/24 12:52:22;;;;;;;0.40;0.40;;;15.70;99.90;;;;;;5041807;28;20084;-57
2022/05/24 12:54:56;;;;;;;0.70;0.60;;;16.00;99.90;;;;;;5042217;28;20126;-56
2022/05/24 12:57:27;;;;;;;0.63;0.40;;;16.20;99.90;;;;;;5042442;28;20195;-57
2022/05/24 13:00:07;;;;;;;0.30;0.30;;;16.30;99.90;;;;;;5041855;28;20095;-56
2022/05/24 13:02:38;;;;;;;0.40;0.40;;;16.40;99.90;;;;;;5041977;28;20162;-57
2022/05/24 13:05:07;;;;;;;0.57;0.40;;;16.60;99.90;;;;;;5040488;28;20550;-56
2022/05/24 13:07:51;;;;;;;0.43;0.40;;;17.30;99.90;;;;;;5028950;28;20226;-57
2022/05/24 13:10:26;;;;;;;0.32;0.32;;;17.90;99.90;;;;;;5030400;28;20060;-57
2022/05/24 13:13:07;;;;;;;0.30;0.30;;;18.40;99.90;;;;;;5041878;28;20140;-57
2022/05/24 13:15:39;;;;;;;0.30;0.30;;;18.80;99.90;;;;;;5041158;28;20053;-57
2022/05/24 13:18:14;;;;;;;0.20;0.20;;;18.70;99.90;;;;;;5020702;28;20132;-56
2022/05/24 13:20:46;;;;;;;0.20;0.20;;;18.70;99.90;;;;;;5013926;28;20132;-55
2022/05/24 13:23:16;;;;;;;0.20;0.20;;;18.10;99.90;;;;;;5039065;28;20330;-56
2022/05/24 13:25:48;;;;;;;0.10;0.10;;;17.10;99.90;;;;;;5032914;28;20547;-55
2022/05/24 13:28:57;;;;;;;;;;;16.60;99.90;;;;;;5014204;28;20160;-56
2022/05/24 13:34:21;;;;;;;0.10;0.10;;;16.10;99.90;;;;;;5022501;28;20049;-53
2022/05/24 13:36:53;;;;;;;0.38;0.30;;;15.80;99.90;;;;;;5003725;28;20132;-55
2022/05/24 13:39:46;;;;;;;0.30;0.30;;;15.50;99.90;;;;;;5004175;28;20140;-54
2022/05/24 13:42:16;;;;;;;0.30;0.30;;;15.40;99.90;;;;;;5021099;28;20119;-55
2022/05/24 13:45:14;;;;;;;0.20;0.20;;;15.20;99.90;;;;;;5036590;28;20052;-53
2022/05/24 13:47:42;;;;;;;1.10;0.77;;;15.10;99.90;;;;;;5022773;28;20088;-56
2022/05/24 13:50:21;;;;;;;0.30;0.30;;;15.10;99.90;;;;;;5037976;28;20048;-51
2022/05/24 13:52:50;;;;;;;0.40;0.40;;;15.10;99.90;;;;;;5024234;28;20124;-55
2022/05/24 13:55:21;;;;;;;0.57;0.47;;;15.20;99.90;;;;;;5043627;28;20523;-53